Rock Springs Sweetwater County Airport Rock Springs US
ICAO: KRKS
IATA: RKS
Category: Medium
Scheduled Services: Yes

Elevation: 6764 ft
TransAlt. 18000 ft.

Airport Communications:
ASOS:118.375
CASPER RDO:122.6
CTAF/UNICOM:122.8

KRKS Zoom In..

If you have problems with the map follow the link
https://www.worldairports.se/pages/airport.php?
ICAO=KRKS

Runways:

(A) RW 03 length 5228 ft width 75 ft
---- / hdg 32

(B) RW 09 length 10000 ft width 150 ft
---- / hdg 90

(C) RW 21 length 5228 ft width 75 ft
---- / hdg 212

(D) RW 27 length 10000 ft width 150 ft
ILS 109.30 / hdg 270

Location; KRKS
Day. 19 / Time. 00.54 Zulu
* Altimeter: 30.38
* Temperature: -07° c. -19.4°f.
* Wind from: 210° Speed 09 kn.
Dewpoint: -13° c.
Visibility: 10 Statute Miles.
Clouds: Clear (automated report).

KRKS 190054Z AUTO 21009KT 10SM CLR M07/M13 A3038 RMK AO2 SLP360 T10671128


Wind From 210°
Speed 09 kn.

 
 
jpsmedia worldairports.se 2020   terms of use